createdAt,value
2023-09-05T00:02:18.609Z,15.80
2023-09-05T00:04:45.861Z,15.79
2023-09-05T00:07:13.114Z,15.79
2023-09-05T00:09:39.675Z,15.76
2023-09-05T00:12:07.954Z,15.74
2023-09-05T00:14:34.400Z,15.72
2023-09-05T00:17:00.956Z,15.72
2023-09-05T00:19:27.468Z,15.69
2023-09-05T00:21:53.900Z,15.68
2023-09-05T00:24:34.499Z,15.63
2023-09-05T00:27:05.133Z,15.62
2023-09-05T00:29:34.946Z,15.59
2023-09-05T00:32:01.700Z,15.57
2023-09-05T00:34:29.439Z,15.57
2023-09-05T00:36:56.650Z,15.57
2023-09-05T00:39:23.131Z,15.57
2023-09-05T00:41:49.565Z,15.56
2023-09-05T00:44:16.140Z,15.55
2023-09-05T00:46:43.312Z,15.54
2023-09-05T00:49:11.768Z,15.53
2023-09-05T00:51:39.014Z,15.50
2023-09-05T00:54:07.282Z,15.49
2023-09-05T00:56:36.487Z,15.46
2023-09-05T00:59:04.576Z,15.45
2023-09-05T01:01:31.691Z,15.42
2023-09-05T01:03:58.726Z,15.39
2023-09-05T01:06:56.119Z,15.39
2023-09-05T01:09:38.043Z,15.37
2023-09-05T01:12:05.840Z,15.35
2023-09-05T01:14:32.580Z,15.33
2023-09-05T01:17:02.420Z,15.30
2023-09-05T01:19:30.947Z,15.29
2023-09-05T01:22:02.435Z,15.27
2023-09-05T01:24:28.901Z,15.27
2023-09-05T01:26:57.023Z,15.27
2023-09-05T01:29:30.948Z,15.25
2023-09-05T01:32:00.465Z,15.26
2023-09-05T01:34:26.885Z,15.23
2023-09-05T01:36:53.372Z,15.24
2023-09-05T01:39:20.530Z,15.24
2023-09-05T01:41:47.009Z,15.23
2023-09-05T01:44:13.492Z,15.22
2023-09-05T01:46:40.047Z,15.21
2023-09-05T01:49:06.889Z,15.21
2023-09-05T01:51:33.452Z,15.20
2023-09-05T01:53:59.918Z,15.21
2023-09-05T01:56:27.501Z,15.18
2023-09-05T01:58:53.931Z,15.15
2023-09-05T02:01:20.394Z,15.14
2023-09-05T02:03:47.145Z,15.15
2023-09-05T02:06:17.756Z,15.16
2023-09-05T02:08:44.281Z,15.18
2023-09-05T02:11:10.973Z,15.18
2023-09-05T02:13:37.661Z,15.17
2023-09-05T02:16:04.440Z,15.14
2023-09-05T02:18:30.944Z,15.11
2023-09-05T02:21:02.243Z,15.13
2023-09-05T02:23:29.247Z,15.11
2023-09-05T02:26:02.807Z,15.11
2023-09-05T02:28:29.794Z,15.09
2023-09-05T02:30:56.994Z,15.08
2023-09-05T02:33:24.186Z,15.09
2023-09-05T02:35:51.338Z,15.10
2023-09-05T02:38:17.792Z,15.09
2023-09-05T02:40:47.793Z,15.11
2023-09-05T02:43:14.984Z,15.09
2023-09-05T02:45:41.637Z,15.08
2023-09-05T02:48:08.739Z,15.06
2023-09-05T02:50:35.433Z,15.04
2023-09-05T02:53:01.949Z,15.00
2023-09-05T02:55:28.402Z,14.99
2023-09-05T02:57:54.937Z,14.96
2023-09-05T03:00:21.731Z,14.95
2023-09-05T03:02:50.581Z,14.93
2023-09-05T03:05:17.131Z,14.92
2023-09-05T03:07:43.524Z,14.89
2023-09-05T03:10:10.179Z,14.87
2023-09-05T03:12:36.592Z,14.84
2023-09-05T03:15:03.253Z,14.80
2023-09-05T03:17:29.709Z,14.76
2023-09-05T03:19:56.141Z,14.73
2023-09-05T03:22:22.558Z,14.72
2023-09-05T03:24:49.085Z,14.71
2023-09-05T03:27:15.562Z,14.70
2023-09-05T03:29:42.005Z,14.71
2023-09-05T03:32:08.440Z,14.72
2023-09-05T03:34:35.702Z,14.74
2023-09-05T03:37:02.279Z,14.78
2023-09-05T03:39:28.715Z,14.75
2023-09-05T03:41:59.933Z,14.76
2023-09-05T03:44:26.368Z,14.73
2023-09-05T03:46:55.025Z,14.74
2023-09-05T03:49:21.496Z,14.72
2023-09-05T03:51:48.048Z,14.70
2023-09-05T03:54:14.728Z,14.68
2023-09-05T03:56:41.278Z,14.63
2023-09-05T03:59:07.732Z,14.64
2023-09-05T04:01:35.993Z,14.61
2023-09-05T04:04:02.551Z,14.59
2023-09-05T04:06:29.160Z,14.54
2023-09-05T04:08:55.624Z,14.52
2023-09-05T04:11:22.122Z,14.49
2023-09-05T04:13:49.414Z,14.47
2023-09-05T04:16:15.962Z,14.48
2023-09-05T04:18:42.642Z,14.45
2023-09-05T04:21:09.434Z,14.42
2023-09-05T04:23:35.902Z,14.40
2023-09-05T04:26:03.095Z,14.38
2023-09-05T04:28:31.247Z,14.36
2023-09-05T04:31:03.158Z,14.34
2023-09-05T04:33:39.581Z,14.34
2023-09-05T04:36:09.975Z,14.31
2023-09-05T04:38:37.495Z,14.27
2023-09-05T04:41:05.123Z,14.26
2023-09-05T04:43:31.670Z,14.27
2023-09-05T04:45:58.785Z,14.26
2023-09-05T04:48:26.252Z,14.26
2023-09-05T04:50:54.027Z,14.25
2023-09-05T04:53:21.802Z,14.23
2023-09-05T04:55:51.792Z,14.22
2023-09-05T04:58:18.285Z,14.22
2023-09-05T05:00:44.785Z,14.20
2023-09-05T05:03:11.480Z,14.18
2023-09-05T05:05:38.048Z,14.19
2023-09-05T05:08:04.870Z,14.18
2023-09-05T05:10:34.926Z,14.19
2023-09-05T05:13:01.427Z,14.19
2023-09-05T05:15:28.128Z,14.22
2023-09-05T05:17:54.707Z,14.27
2023-09-05T05:20:21.297Z,14.28
2023-09-05T05:22:47.739Z,14.33
2023-09-05T05:25:14.274Z,14.38
2023-09-05T05:27:41.850Z,14.43
2023-09-05T05:30:09.816Z,14.47
2023-09-05T05:32:36.228Z,14.55
2023-09-05T05:35:02.866Z,14.62
2023-09-05T05:37:30.447Z,14.67
2023-09-05T05:39:56.972Z,14.69
2023-09-05T05:42:23.463Z,14.74
2023-09-05T05:44:49.942Z,14.80
2023-09-05T05:47:16.404Z,14.87
2023-09-05T05:49:42.836Z,14.93
2023-09-05T05:52:11.768Z,15.01
2023-09-05T05:54:38.126Z,15.05
2023-09-05T05:57:04.787Z,15.05
2023-09-05T05:59:31.301Z,15.08
2023-09-05T06:01:58.360Z,15.11
2023-09-05T06:04:25.736Z,15.18
2023-09-05T06:06:54.096Z,15.22
2023-09-05T06:09:20.848Z,15.27
2023-09-05T06:11:47.885Z,15.34
2023-09-05T06:14:15.837Z,15.41
2023-09-05T06:16:42.725Z,15.47
2023-09-05T06:19:09.774Z,15.53
2023-09-05T06:21:36.462Z,15.57
2023-09-05T06:24:02.970Z,15.63
2023-09-05T06:26:29.490Z,15.70
2023-09-05T06:28:55.920Z,15.76
2023-09-05T06:31:22.480Z,15.84
2023-09-05T06:33:48.982Z,15.89
2023-09-05T06:36:15.444Z,15.97
2023-09-05T06:38:42.901Z,16.03
2023-09-05T06:41:11.210Z,16.09
2023-09-05T06:43:38.554Z,16.16
2023-09-05T06:46:06.819Z,16.24
2023-09-05T06:48:35.821Z,16.32
2023-09-05T06:51:02.470Z,16.39
2023-09-05T06:53:29.940Z,16.47
2023-09-05T06:55:56.448Z,16.55
2023-09-05T06:58:24.838Z,16.60
2023-09-05T07:00:56.025Z,16.71
2023-09-05T07:03:26.704Z,16.81
2023-09-05T07:06:04.953Z,16.91
2023-09-05T07:08:33.216Z,17.01
2023-09-05T07:10:59.760Z,17.12
2023-09-05T07:13:26.611Z,17.25
2023-09-05T07:15:53.896Z,17.40
2023-09-05T07:18:20.675Z,17.54
2023-09-05T07:20:47.180Z,17.70
2023-09-05T07:23:13.608Z,17.85
2023-09-05T07:25:40.484Z,18.03
2023-09-05T07:28:07.689Z,18.20
2023-09-05T07:30:34.564Z,18.33
2023-09-05T07:33:01.295Z,18.48
2023-09-05T07:35:27.750Z,18.62
2023-09-05T07:37:54.260Z,18.81
2023-09-05T07:40:23.618Z,18.94
2023-09-05T07:42:51.607Z,19.12
2023-09-05T07:45:18.193Z,19.29
2023-09-05T07:47:45.441Z,19.43
2023-09-05T07:50:12.166Z,19.58
2023-09-05T07:52:38.886Z,19.71
2023-09-05T07:55:06.001Z,19.82
2023-09-05T07:57:32.637Z,19.94
2023-09-05T07:59:59.175Z,20.08
2023-09-05T08:02:25.643Z,20.22
2023-09-05T08:04:52.130Z,20.38
2023-09-05T08:07:18.732Z,20.47
2023-09-05T08:09:45.742Z,20.59
2023-09-05T08:12:12.299Z,20.71
2023-09-05T08:14:39.017Z,20.80
2023-09-05T08:17:05.455Z,20.93
2023-09-05T08:19:32.798Z,21.07
2023-09-05T08:21:59.364Z,21.21
2023-09-05T08:24:25.860Z,21.35
2023-09-05T08:26:52.357Z,21.41
2023-09-05T08:29:20.065Z,21.54
2023-09-05T08:31:46.654Z,21.60
2023-09-05T08:34:13.172Z,21.70
2023-09-05T08:36:39.642Z,21.80
2023-09-05T08:39:06.214Z,21.88
2023-09-05T08:41:32.861Z,21.95
2023-09-05T08:44:00.098Z,22.04
2023-09-05T08:46:29.469Z,22.15
2023-09-05T08:48:56.738Z,22.22
2023-09-05T08:51:31.478Z,22.30
2023-09-05T08:54:00.583Z,22.48
2023-09-05T08:56:27.482Z,22.58
2023-09-05T08:58:58.028Z,22.60
2023-09-05T09:01:26.999Z,22.66
2023-09-05T09:03:58.412Z,22.75
2023-09-05T09:06:27.745Z,22.92
2023-09-05T09:08:55.263Z,23.08
2023-09-05T09:11:23.594Z,23.14
2023-09-05T09:13:57.874Z,23.24
2023-09-05T09:16:24.544Z,23.37
2023-09-05T09:19:01.158Z,23.51
2023-09-05T09:21:29.978Z,23.55
2023-09-05T09:24:09.065Z,23.61
2023-09-05T09:26:39.799Z,23.71
2023-09-05T09:29:10.332Z,23.85
2023-09-05T09:31:38.834Z,23.91
2023-09-05T09:34:07.439Z,24.00
2023-09-05T09:36:35.798Z,24.06
2023-09-05T09:39:12.064Z,24.17
2023-09-05T09:41:48.974Z,24.20
2023-09-05T09:44:26.970Z,24.24
2023-09-05T09:46:55.272Z,24.34
2023-09-05T09:49:24.357Z,24.50
2023-09-05T09:51:57.341Z,24.64
2023-09-05T09:54:36.165Z,24.73
2023-09-05T09:57:05.392Z,24.83
2023-09-05T09:59:37.196Z,24.97
2023-09-05T10:02:14.940Z,25.09
2023-09-05T10:04:43.623Z,25.13
2023-09-05T10:07:17.740Z,25.19
2023-09-05T10:09:49.150Z,25.31
2023-09-05T10:12:20.282Z,25.46
2023-09-05T10:14:48.808Z,25.59
2023-09-05T10:17:16.321Z,25.64
2023-09-05T10:19:45.254Z,25.64
2023-09-05T10:22:17.764Z,25.70
2023-09-05T10:24:44.839Z,25.78
2023-09-05T10:27:12.166Z,25.84
2023-09-05T10:29:43.388Z,25.90
2023-09-05T10:32:23.172Z,26.02
2023-09-05T10:34:49.735Z,26.14
2023-09-05T10:37:19.352Z,26.25
2023-09-05T10:39:47.681Z,26.35
2023-09-05T10:42:15.009Z,26.33
2023-09-05T10:44:51.415Z,26.35
2023-09-05T10:47:29.508Z,26.52
2023-09-05T10:50:06.654Z,26.64
2023-09-05T10:52:33.660Z,26.79
2023-09-05T10:55:33.150Z,26.95
2023-09-05T10:58:00.301Z,27.08
2023-09-05T11:00:30.895Z,27.10
2023-09-05T11:03:15.590Z,27.23
2023-09-05T11:05:43.632Z,27.35
2023-09-05T11:08:24.076Z,27.42
2023-09-05T11:10:56.495Z,27.40
2023-09-05T11:13:23.217Z,27.50
2023-09-05T11:15:58.928Z,27.64
2023-09-05T11:18:25.471Z,27.78
2023-09-05T11:20:51.941Z,27.83
2023-09-05T11:23:28.986Z,27.87
2023-09-05T11:25:57.831Z,27.90
2023-09-05T11:28:25.221Z,27.96
2023-09-05T11:31:04.236Z,28.11
2023-09-05T11:33:31.233Z,28.16
2023-09-05T11:35:58.722Z,28.23
2023-09-05T11:38:27.054Z,28.35
2023-09-05T11:40:56.617Z,28.39
2023-09-05T11:43:23.868Z,28.50
2023-09-05T11:45:56.108Z,28.58
2023-09-05T11:48:24.453Z,28.57
2023-09-05T11:50:52.069Z,28.66
2023-09-05T11:53:20.590Z,28.79
2023-09-05T11:55:48.576Z,28.89
2023-09-05T11:58:17.847Z,28.96
2023-09-05T12:00:46.058Z,29.08
2023-09-05T12:03:16.346Z,29.20
2023-09-05T12:05:44.158Z,29.30
2023-09-05T12:08:29.639Z,29.33
2023-09-05T12:10:58.476Z,29.35
2023-09-05T12:13:40.985Z,29.37
2023-09-05T12:16:09.535Z,29.44
2023-09-05T12:18:36.287Z,29.49
2023-09-05T12:21:02.776Z,29.50
2023-09-05T12:23:30.508Z,29.55
2023-09-05T12:25:58.413Z,29.73
2023-09-05T12:28:26.908Z,29.76
2023-09-05T12:31:06.723Z,29.77
2023-09-05T12:33:33.960Z,29.87
2023-09-05T12:36:00.581Z,29.89
2023-09-05T12:38:30.675Z,29.89
2023-09-05T12:41:00.734Z,30.00
2023-09-05T12:43:27.231Z,30.09
2023-09-05T12:45:54.765Z,30.17
2023-09-05T12:48:21.281Z,30.17
2023-09-05T12:50:50.241Z,30.17
2023-09-05T12:53:20.761Z,30.31
2023-09-05T12:55:49.898Z,30.36
2023-09-05T12:58:16.450Z,30.43
2023-09-05T13:00:43.463Z,30.47
2023-09-05T13:03:12.247Z,30.35
2023-09-05T13:05:40.319Z,30.44
2023-09-05T13:08:06.854Z,30.44
2023-09-05T13:10:33.432Z,30.57
2023-09-05T13:13:02.746Z,30.63
2023-09-05T13:15:31.975Z,30.71
2023-09-05T13:17:58.843Z,30.89
2023-09-05T13:20:25.578Z,30.88
2023-09-05T13:22:52.508Z,30.87
2023-09-05T13:25:20.902Z,30.87
2023-09-05T13:27:48.548Z,30.92
2023-09-05T13:30:16.145Z,30.89
2023-09-05T13:32:42.806Z,30.96
2023-09-05T13:35:10.840Z,30.92
2023-09-05T13:37:37.642Z,31.01
2023-09-05T13:40:05.050Z,31.05
2023-09-05T13:42:31.844Z,31.14
2023-09-05T13:44:58.358Z,31.24
2023-09-05T13:47:25.047Z,31.25
2023-09-05T13:49:51.467Z,31.33
2023-09-05T13:52:17.930Z,31.31
2023-09-05T13:54:46.415Z,31.26
2023-09-05T13:57:13.668Z,31.39
2023-09-05T13:59:40.369Z,31.42
2023-09-05T14:02:07.164Z,31.35
2023-09-05T14:04:33.734Z,31.40
2023-09-05T14:07:01.398Z,31.37
2023-09-05T14:09:27.881Z,31.41
2023-09-05T14:11:54.403Z,31.46
2023-09-05T14:14:20.828Z,31.34
2023-09-05T14:16:56.052Z,31.37
2023-09-05T14:19:24.095Z,31.42
2023-09-05T14:21:50.860Z,31.41
2023-09-05T14:24:17.424Z,31.51
2023-09-05T14:26:43.869Z,31.53
2023-09-05T14:29:10.395Z,31.54
2023-09-05T14:31:36.961Z,31.51
2023-09-05T14:34:03.695Z,31.46
2023-09-05T14:36:30.264Z,31.46
2023-09-05T14:38:57.792Z,31.44
2023-09-05T14:41:31.918Z,31.49
2023-09-05T14:44:00.879Z,31.56
2023-09-05T14:46:27.568Z,31.62
2023-09-05T14:48:54.262Z,31.59
2023-09-05T14:51:20.761Z,31.69
2023-09-05T14:53:48.154Z,31.63
2023-09-05T14:56:15.232Z,31.71
2023-09-05T14:58:41.691Z,31.66
2023-09-05T15:01:08.177Z,31.71
2023-09-05T15:03:34.911Z,31.70
2023-09-05T15:06:01.411Z,31.68
2023-09-05T15:08:28.121Z,31.64
2023-09-05T15:10:54.723Z,31.62
2023-09-05T15:13:21.173Z,31.62
2023-09-05T15:15:49.844Z,31.68
2023-09-05T15:18:16.838Z,31.68
2023-09-05T15:20:43.409Z,31.73
2023-09-05T15:23:09.892Z,31.78
2023-09-05T15:25:37.475Z,31.77
2023-09-05T15:28:04.206Z,31.69
2023-09-05T15:30:35.025Z,31.64
2023-09-05T15:33:01.586Z,31.50
2023-09-05T15:35:28.493Z,31.42
2023-09-05T15:37:55.016Z,31.35
2023-09-05T15:40:22.115Z,31.25
2023-09-05T15:42:48.559Z,31.17
2023-09-05T15:45:15.109Z,31.15
2023-09-05T15:47:42.210Z,31.12
2023-09-05T15:50:09.309Z,30.96
2023-09-05T15:52:35.772Z,30.88
2023-09-05T15:55:02.270Z,30.82
2023-09-05T15:57:28.895Z,30.74
2023-09-05T15:59:58.266Z,30.69
2023-09-05T16:02:24.899Z,30.55
2023-09-05T16:04:51.362Z,30.49
2023-09-05T16:07:17.840Z,30.35
2023-09-05T16:09:44.691Z,30.23
2023-09-05T16:12:11.443Z,30.13
2023-09-05T16:14:41.800Z,29.96
2023-09-05T16:17:08.892Z,29.78
2023-09-05T16:19:37.212Z,29.56
2023-09-05T16:22:03.955Z,29.42
2023-09-05T16:24:30.556Z,29.30
2023-09-05T16:26:59.199Z,29.18
2023-09-05T16:29:25.817Z,29.09
2023-09-05T16:31:52.474Z,28.98
2023-09-05T16:34:18.952Z,28.86
2023-09-05T16:36:45.413Z,28.75
2023-09-05T16:39:11.984Z,28.65
2023-09-05T16:41:38.569Z,28.59
2023-09-05T16:44:05.583Z,28.51
2023-09-05T16:46:32.344Z,28.44
2023-09-05T16:48:59.039Z,28.33
2023-09-05T16:51:26.255Z,28.24
2023-09-05T16:53:52.845Z,28.17
2023-09-05T16:56:19.761Z,28.04
2023-09-05T16:58:46.367Z,27.92
2023-09-05T17:01:13.345Z,27.87
2023-09-05T17:03:39.943Z,27.79
2023-09-05T17:06:06.472Z,27.74
2023-09-05T17:08:33.297Z,27.66
2023-09-05T17:11:00.343Z,27.56
2023-09-05T17:13:27.191Z,27.47
2023-09-05T17:15:54.008Z,27.42
2023-09-05T17:18:20.982Z,27.28
2023-09-05T17:20:51.614Z,27.17
2023-09-05T17:23:22.938Z,27.11
2023-09-05T17:25:50.394Z,27.04
2023-09-05T17:28:20.097Z,26.97
2023-09-05T17:30:47.111Z,26.87
2023-09-05T17:33:13.965Z,26.80
2023-09-05T17:35:41.921Z,26.72
2023-09-05T17:38:08.651Z,26.63
2023-09-05T17:40:38.124Z,26.52
2023-09-05T17:43:04.886Z,26.46
2023-09-05T17:45:31.488Z,26.38
2023-09-05T17:47:57.956Z,26.31
2023-09-05T17:50:24.595Z,26.17
2023-09-05T17:52:51.265Z,26.11
2023-09-05T17:55:18.135Z,26.02
2023-09-05T17:57:45.731Z,25.93
2023-09-05T18:00:13.992Z,25.81
2023-09-05T18:02:40.552Z,25.67
